< < Back
Terminal Aerodrome Forecast


Current Version              Previous Versions:   1  2  3  4  5  6  7  8  9  

Terminal Aerodrome Forecast

456
FTUS42 KCHS 281700
TAFSAV
TAF
KSAV 281728Z 2818/2918 35007KT P6SM SKC
     FM290000 00000KT P6SM SKC=



Latest METAR

893
SAUS80 KWBC 290500 RRA
MTRSAV
METAR KSAV 290453Z AUTO 00000KT 10SM CLR 03/M01 A3034 RMK AO2 SLP274
LAST AUGMENTED OBSERVATION UNTIL 1100Z T00331006
401220017


USA.gov is the U.S. government's official web portal to all federal, state and local government web resources and services.